createdAt,value
2018-07-15T21:27:12.386Z,41.70
2018-07-15T21:29:52.381Z,42.90
2018-07-15T21:32:22.946Z,42.30
2018-07-15T21:34:53.113Z,42.10
2018-07-15T21:37:23.314Z,41.20
2018-07-15T21:39:53.503Z,41.30
2018-07-15T21:42:23.738Z,41.90
2018-07-15T21:44:53.796Z,43.20
2018-07-15T21:47:24.073Z,42.80
2018-07-15T21:49:54.178Z,42.80
2018-07-15T21:52:24.461Z,43.80
2018-07-15T21:54:54.749Z,43.30
2018-07-15T21:57:24.974Z,43.30
2018-07-15T21:59:55.154Z,43.50
2018-07-15T22:02:25.274Z,43.80
2018-07-15T22:04:57.545Z,44.10
2018-07-15T22:07:45.335Z,44.30
2018-07-15T22:10:22.354Z,44.30
2018-07-15T22:12:52.563Z,44.50
2018-07-15T22:15:22.750Z,44.50
2018-07-15T22:17:53.046Z,44.40
2018-07-15T22:20:23.066Z,44.70
2018-07-15T22:22:53.170Z,45.60
2018-07-15T22:25:23.528Z,45.20
2018-07-15T22:27:53.549Z,45.30
2018-07-15T22:30:23.574Z,45.30
2018-07-15T22:32:53.594Z,45.90
2018-07-15T22:35:23.865Z,45.40
2018-07-15T22:37:54.063Z,45.40
2018-07-15T22:40:24.190Z,45.50
2018-07-15T22:42:54.376Z,45.50
2018-07-15T22:45:24.471Z,45.70
2018-07-15T22:47:54.562Z,45.70
2018-07-15T22:52:54.445Z,45.80
2018-07-15T22:55:24.725Z,46.10
2018-07-15T22:57:55.150Z,46.20
2018-07-15T23:00:25.293Z,46.80
2018-07-15T23:02:55.396Z,46.10
2018-07-15T23:05:44.710Z,46.10
2018-07-15T23:08:14.843Z,46.20
2018-07-15T23:10:44.945Z,46.40
2018-07-15T23:13:15.414Z,46.50
2018-07-15T23:15:45.773Z,46.50
2018-07-15T23:18:16.116Z,46.70
2018-07-15T23:20:46.881Z,46.90
2018-07-15T23:23:17.361Z,46.90
2018-07-15T23:25:47.566Z,46.80
2018-07-15T23:28:18.262Z,46.90
2018-07-15T23:30:48.363Z,47.20
2018-07-15T23:33:18.737Z,47.90
2018-07-15T23:35:49.965Z,47.10
2018-07-15T23:38:20.181Z,47.10
2018-07-15T23:40:50.382Z,47.40
2018-07-15T23:43:20.673Z,47.50
2018-07-15T23:45:50.793Z,47.50
2018-07-15T23:48:20.810Z,47.40
2018-07-15T23:50:50.947Z,47.40
2018-07-15T23:53:21.373Z,47.70
2018-07-15T23:55:52.571Z,48.10
2018-07-15T23:58:22.846Z,48.00
